Pagrindinis puslapis
METAR-TAF:

METAR-TAF

Oro uostai :

Palena, Čilė

platuma: 43-36-41S, ilguma: 071-48-19W, Aukštis: 277 m

Dabartinis oras

Ataskaita buvo paskelbta 1 valandą ir 23 minutes, ne 03:00 UTC
Vėjas 2 kt nuo kintamojo kryptimis
Temperatūra 0°C
Drėgmė 93%
Slėgis 1003 hPa
Matomumas: 0900 m
lietus, sniegas, rūkana

METAR: SCAP 060300Z AUTO VRB02KT 0900 -RASN BR ////// 00/M01 Q1003

Laikas: 00:23 (04:23 UTC)


TAF: trūkstamas

Orai ataskaitas ir orų prognozės (METAR, TAF).

turimą stotys yra geltonos ir raudonos taškus žemėlapyje.

Perkelti pele per norėdami pamatyti stoties vardą.

Tada spustelėkite, norėdami matyti oro stebėjimo ir prognozės.

Norėdami pakeisti žemėlapį: spustelėkite ant žalios mygtukų su juodo kryžiaus žemyn,; žalią mygtuką su brūkšneliu, jei norite nutolinti; arba žalių rodyklių gretimoms žemėlapius.


METAR-TAF: